sensor_id;sensor_type;location;lat;lon;timestamp;pressure;altitude;pressure_sealevel;temperature;humidity
5283;BME280;15376;48.540;9.268;2023-05-11T00:00:36;97317.19;;;10.94;100.00
5283;BME280;15376;48.540;9.268;2023-05-11T00:03:02;97311.16;;;10.85;100.00
5283;BME280;15376;48.540;9.268;2023-05-11T00:05:27;97306.47;;;10.87;100.00
5283;BME280;15376;48.540;9.268;2023-05-11T00:07:53;97314.72;;;10.92;100.00
5283;BME280;15376;48.540;9.268;2023-05-11T00:10:18;97313.69;;;10.93;100.00
5283;BME280;15376;48.540;9.268;2023-05-11T00:12:43;97314.97;;;10.97;100.00
5283;BME280;15376;48.540;9.268;2023-05-11T00:15:09;97308.38;;;10.93;100.00
5283;BME280;15376;48.540;9.268;2023-05-11T00:17:35;97307.31;;;10.88;100.00
5283;BME280;15376;48.540;9.268;2023-05-11T00:20:00;97310.41;;;10.91;100.00
5283;BME280;15376;48.540;9.268;2023-05-11T00:22:25;97312.69;;;10.94;100.00
5283;BME280;15376;48.540;9.268;2023-05-11T00:24:51;97309.03;;;10.95;100.00
5283;BME280;15376;48.540;9.268;2023-05-11T00:27:16;97308.56;;;10.92;100.00
5283;BME280;15376;48.540;9.268;2023-05-11T00:29:41;97312.69;;;10.94;100.00
5283;BME280;15376;48.540;9.268;2023-05-11T00:32:07;97312.69;;;10.94;100.00
5283;BME280;15376;48.540;9.268;2023-05-11T00:34:33;97298.31;;;10.89;100.00
5283;BME280;15376;48.540;9.268;2023-05-11T00:36:58;97299.78;;;10.91;100.00
5283;BME280;15376;48.540;9.268;2023-05-11T00:39:24;97280.75;;;10.88;100.00
5283;BME280;15376;48.540;9.268;2023-05-11T00:41:49;97302.50;;;10.98;100.00
5283;BME280;15376;48.540;9.268;2023-05-11T00:44:15;97302.06;;;10.94;100.00
5283;BME280;15376;48.540;9.268;2023-05-11T00:46:41;97309.22;;;10.94;100.00
5283;BME280;15376;48.540;9.268;2023-05-11T00:49:06;97295.41;;;10.84;100.00
5283;BME280;15376;48.540;9.268;2023-05-11T00:51:32;97301.44;;;10.92;100.00
5283;BME280;15376;48.540;9.268;2023-05-11T00:53:58;97307.38;;;10.94;100.00
5283;BME280;15376;48.540;9.268;2023-05-11T00:56:24;97309.41;;;10.92;100.00
5283;BME280;15376;48.540;9.268;2023-05-11T00:58:51;97304.09;;;10.92;100.00
5283;BME280;15376;48.540;9.268;2023-05-11T01:01:16;97289.72;;;10.87;100.00
5283;BME280;15376;48.540;9.268;2023-05-11T01:03:43;97301.25;;;10.94;100.00
5283;BME280;15376;48.540;9.268;2023-05-11T01:06:22;97297.94;;;10.92;100.00
5283;BME280;15376;48.540;9.268;2023-05-11T01:14:41;97293.38;;;10.86;100.00
5283;BME280;15376;48.540;9.268;2023-05-11T01:17:17;97281.44;;;10.75;100.00
5283;BME280;15376;48.540;9.268;2023-05-11T01:19:54;97294.78;;;10.82;100.00
5283;BME280;15376;48.540;9.268;2023-05-11T01:22:33;97298.50;;;10.87;100.00
5283;BME280;15376;48.540;9.268;2023-05-11T01:30:30;97298.50;;;10.87;100.00
5283;BME280;15376;48.540;9.268;2023-05-11T01:33:04;97296.41;;;10.83;100.00
5283;BME280;15376;48.540;9.268;2023-05-11T01:35:31;97306.84;;;10.84;100.00
5283;BME280;15376;48.540;9.268;2023-05-11T01:37:59;97294.59;;;10.83;100.00
5283;BME280;15376;48.540;9.268;2023-05-11T01:40:27;97298.25;;;10.82;100.00
5283;BME280;15376;48.540;9.268;2023-05-11T01:43:09;97300.53;;;10.85;100.00
5283;BME280;15376;48.540;9.268;2023-05-11T01:45:40;97284.09;;;10.75;100.00
5283;BME280;15376;48.540;9.268;2023-05-11T01:48:13;97283.84;;;10.70;100.00
5283;BME280;15376;48.540;9.268;2023-05-11T01:50:40;97300.91;;;10.82;100.00
5283;BME280;15376;48.540;9.268;2023-05-11T01:53:07;97298.25;;;10.82;100.00
5283;BME280;15376;48.540;9.268;2023-05-11T01:55:34;97298.03;;;10.77;100.00
5283;BME280;15376;48.540;9.268;2023-05-11T01:58:01;97295.75;;;10.74;100.00
5283;BME280;15376;48.540;9.268;2023-05-11T02:00:29;97301.50;;;10.78;100.00
5283;BME280;15376;48.540;9.268;2023-05-11T02:02:55;97313.31;;;10.75;100.00
5283;BME280;15376;48.540;9.268;2023-05-11T02:05:23;97308.84;;;10.76;100.00
5283;BME280;15376;48.540;9.268;2023-05-11T02:07:50;97297.38;;;10.75;100.00
5283;BME280;15376;48.540;9.268;2023-05-11T02:10:17;97307.22;;;10.81;100.00
5283;BME280;15376;48.540;9.268;2023-05-11T02:12:44;97289.41;;;10.75;100.00
5283;BME280;15376;48.540;9.268;2023-05-11T02:15:11;97303.75;;;10.81;100.00
5283;BME280;15376;48.540;9.268;2023-05-11T02:17:38;97291.63;;;10.72;100.00
5283;BME280;15376;48.540;9.268;2023-05-11T02:20:06;97309.88;;;10.81;100.00
5283;BME280;15376;48.540;9.268;2023-05-11T02:22:34;97302.75;;;10.82;100.00
5283;BME280;15376;48.540;9.268;2023-05-11T02:25:00;97304.56;;;10.81;100.00
5283;BME280;15376;48.540;9.268;2023-05-11T02:27:25;97295.38;;;10.77;100.00
5283;BME280;15376;48.540;9.268;2023-05-11T02:29:50;97304.75;;;10.80;100.00
5283;BME280;15376;48.540;9.268;2023-05-11T02:32:19;97289.78;;;10.72;100.00
5283;BME280;15376;48.540;9.268;2023-05-11T02:34:53;97297.00;;;10.78;100.00
5283;BME280;15376;48.540;9.268;2023-05-11T02:37:23;97289.59;;;10.74;100.00
5283;BME280;15376;48.540;9.268;2023-05-11T02:39:56;97291.81;;;10.70;100.00
5283;BME280;15376;48.540;9.268;2023-05-11T02:42:22;97281.56;;;10.67;100.00
5283;BME280;15376;48.540;9.268;2023-05-11T02:44:57;97295.75;;;10.74;100.00
5283;BME280;15376;48.540;9.268;2023-05-11T02:47:30;97295.75;;;10.74;100.00
5283;BME280;15376;48.540;9.268;2023-05-11T02:49:58;97301.88;;;10.75;100.00
5283;BME280;15376;48.540;9.268;2023-05-11T02:52:26;97291.63;;;10.72;100.00
5283;BME280;15376;48.540;9.268;2023-05-11T02:54:53;97283.59;;;10.65;100.00
5283;BME280;15376;48.540;9.268;2023-05-11T02:57:20;97295.94;;;10.73;100.00
5283;BME280;15376;48.540;9.268;2023-05-11T02:59:46;97290.81;;;10.71;100.00
5283;BME280;15376;48.540;9.268;2023-05-11T03:02:12;97290.63;;;10.73;100.00
5283;BME280;15376;48.540;9.268;2023-05-11T03:04:38;97290.44;;;10.74;100.00
5283;BME280;15376;48.540;9.268;2023-05-11T03:07:04;97290.44;;;10.74;100.00
5283;BME280;15376;48.540;9.268;2023-05-11T03:09:30;97286.13;;;10.73;100.00
5283;BME280;15376;48.540;9.268;2023-05-11T03:11:56;97284.84;;;10.69;100.00
5283;BME280;15376;48.540;9.268;2023-05-11T03:14:22;97279.09;;;10.65;100.00
5283;BME280;15376;48.540;9.268;2023-05-11T03:16:48;97273.59;;;10.67;100.00
5283;BME280;15376;48.540;9.268;2023-05-11T03:19:14;97280.81;;;10.73;100.00
5283;BME280;15376;48.540;9.268;2023-05-11T03:21:40;97289.16;;;10.70;100.00
5283;BME280;15376;48.540;9.268;2023-05-11T03:24:06;97282.94;;;10.63;100.00
5283;BME280;15376;48.540;9.268;2023-05-11T03:26:33;97287.06;;;10.65;100.00
5283;BME280;15376;48.540;9.268;2023-05-11T03:28:59;97278.66;;;10.62;100.00
5283;BME280;15376;48.540;9.268;2023-05-11T03:31:25;97278.47;;;10.63;100.00
5283;BME280;15376;48.540;9.268;2023-05-11T03:33:50;97272.44;;;10.55;100.00
5283;BME280;15376;48.540;9.268;2023-05-11T03:36:16;97283.31;;;10.60;100.00
5283;BME280;15376;48.540;9.268;2023-05-11T03:38:44;97279.66;;;10.61;100.00
5283;BME280;15376;48.540;9.268;2023-05-11T03:41:13;97282.13;;;10.62;100.00
5283;BME280;15376;48.540;9.268;2023-05-11T03:43:39;97258.72;;;10.51;100.00
5283;BME280;15376;48.540;9.268;2023-05-11T03:46:05;97251.25;;;10.40;100.00
5283;BME280;15376;48.540;9.268;2023-05-11T03:48:31;97275.28;;;10.53;100.00
5283;BME280;15376;48.540;9.268;2023-05-11T03:50:57;97280.84;;;10.58;100.00
5283;BME280;15376;48.540;9.268;2023-05-11T03:53:26;97278.38;;;10.57;100.00
5283;BME280;15376;48.540;9.268;2023-05-11T03:55:52;97270.59;;;10.55;100.00
5283;BME280;15376;48.540;9.268;2023-05-11T03:58:17;97261.66;;;10.42;100.00
5283;BME280;15376;48.540;9.268;2023-05-11T04:00:43;97275.84;;;10.49;100.00
5283;BME280;15376;48.540;9.268;2023-05-11T04:03:08;97274.84;;;10.50;100.00
5283;BME280;15376;48.540;9.268;2023-05-11T04:05:34;97284.81;;;10.48;100.00
5283;BME280;15376;48.540;9.268;2023-05-11T04:08:01;97263.13;;;10.44;100.00
5283;BME280;15376;48.540;9.268;2023-05-11T04:10:27;97273.81;;;10.51;100.00
5283;BME280;15376;48.540;9.268;2023-05-11T04:12:52;97270.53;;;10.49;100.00
5283;BME280;15376;48.540;9.268;2023-05-11T04:15:18;97275.09;;;10.55;100.00
5283;BME280;15376;48.540;9.268;2023-05-11T04:17:43;97272.63;;;10.53;100.00
5283;BME280;15376;48.540;9.268;2023-05-11T04:20:08;97270.16;;;10.52;100.00
5283;BME280;15376;48.540;9.268;2023-05-11T04:22:34;97279.97;;;10.51;100.00
5283;BME280;15376;48.540;9.268;2023-05-11T04:24:59;97278.50;;;10.49;100.00
5283;BME280;15376;48.540;9.268;2023-05-11T04:27:24;97277.13;;;10.53;100.00
5283;BME280;15376;48.540;9.268;2023-05-11T04:29:50;97275.66;;;10.50;100.00
5283;BME280;15376;48.540;9.268;2023-05-11T04:32:15;97283.69;;;10.57;100.00
5283;BME280;15376;48.540;9.268;2023-05-11T04:34:41;97281.88;;;10.57;100.00
5283;BME280;15376;48.540;9.268;2023-05-11T04:37:06;97280.66;;;10.60;100.00
5283;BME280;15376;48.540;9.268;2023-05-11T04:39:33;97285.34;;;10.58;100.00
5283;BME280;15376;48.540;9.268;2023-05-11T04:41:59;97279.66;;;10.61;100.00
5283;BME280;15376;48.540;9.268;2023-05-11T04:44:25;97273.63;;;10.52;100.00
5283;BME280;15376;48.540;9.268;2023-05-11T04:46:53;97285.34;;;10.58;100.00
5283;BME280;15376;48.540;9.268;2023-05-11T04:49:19;97282.94;;;10.63;100.00
5283;BME280;15376;48.540;9.268;2023-05-11T04:51:44;97274.34;;;10.61;100.00
5283;BME280;15376;48.540;9.268;2023-05-11T04:54:10;97284.22;;;10.67;100.00
5283;BME280;15376;48.540;9.268;2023-05-11T04:56:35;97284.66;;;10.71;100.00
5283;BME280;15376;48.540;9.268;2023-05-11T04:59:05;97277.72;;;10.69;100.00
5283;BME280;15376;48.540;9.268;2023-05-11T05:01:30;97269.56;;;10.71;100.00
5283;BME280;15376;48.540;9.268;2023-05-11T05:03:56;97283.50;;;10.80;100.00
5283;BME280;15376;48.540;9.268;2023-05-11T05:06:21;97278.19;;;10.80;100.00
5283;BME280;15376;48.540;9.268;2023-05-11T05:08:46;97281.69;;;10.80;100.00
5283;BME280;15376;48.540;9.268;2023-05-11T05:11:12;97276.59;;;10.79;100.00
5283;BME280;15376;48.540;9.268;2023-05-11T05:13:37;97272.09;;;10.79;100.00
5283;BME280;15376;48.540;9.268;2023-05-11T05:16:03;97281.19;;;10.91;100.00
5283;BME280;15376;48.540;9.268;2023-05-11T05:18:28;97286.94;;;10.95;100.00
5283;BME280;15376;48.540;9.268;2023-05-11T05:20:53;97282.91;;;10.99;100.00
5283;BME280;15376;48.540;9.268;2023-05-11T05:23:19;97288.41;;;10.97;100.00
5283;BME280;15376;48.540;9.268;2023-05-11T05:25:44;97281.31;;;11.05;100.00
5283;BME280;15376;48.540;9.268;2023-05-11T05:28:10;97286.06;;;11.09;100.00
5283;BME280;15376;48.540;9.268;2023-05-11T05:30:35;97284.84;;;11.12;100.00
5283;BME280;15376;48.540;9.268;2023-05-11T05:33:01;97281.81;;;11.15;100.00
5283;BME280;15376;48.540;9.268;2023-05-11T05:35:26;97287.16;;;11.21;100.00
5283;BME280;15376;48.540;9.268;2023-05-11T05:37:52;97289.50;;;11.31;100.00
5283;BME280;15376;48.540;9.268;2023-05-11T05:40:17;97292.53;;;11.28;100.00
5283;BME280;15376;48.540;9.268;2023-05-11T05:42:43;97297.59;;;11.23;100.00
5283;BME280;15376;48.540;9.268;2023-05-11T05:45:09;97298.63;;;11.22;100.00
5283;BME280;15376;48.540;9.268;2023-05-11T05:47:34;97281.44;;;11.18;100.00
5283;BME280;15376;48.540;9.268;2023-05-11T05:49:59;97286.97;;;11.23;100.00
5283;BME280;15376;48.540;9.268;2023-05-11T05:52:25;97290.91;;;11.27;100.00
5283;BME280;15376;48.540;9.268;2023-05-11T05:54:50;97296.72;;;11.37;100.00
5283;BME280;15376;48.540;9.268;2023-05-11T05:57:15;97305.31;;;11.39;100.00
5283;BME280;15376;48.540;9.268;2023-05-11T05:59:41;97299.75;;;11.34;100.00
5283;BME280;15376;48.540;9.268;2023-05-11T06:02:07;97297.91;;;11.34;100.00
5283;BME280;15376;48.540;9.268;2023-05-11T06:04:32;97295.94;;;11.43;100.00
5283;BME280;15376;48.540;9.268;2023-05-11T06:06:57;97286.56;;;11.47;100.00
5283;BME280;15376;48.540;9.268;2023-05-11T06:09:24;97299.69;;;11.49;100.00
5283;BME280;15376;48.540;9.268;2023-05-11T06:11:49;97280.63;;;11.45;100.00
5283;BME280;15376;48.540;9.268;2023-05-11T06:14:14;97291.13;;;11.53;100.00
5283;BME280;15376;48.540;9.268;2023-05-11T06:16:40;97295.66;;;11.59;100.00
5283;BME280;15376;48.540;9.268;2023-05-11T06:19:07;97301.84;;;11.66;100.00
5283;BME280;15376;48.540;9.268;2023-05-11T06:21:32;97299.84;;;11.75;100.00
5283;BME280;15376;48.540;9.268;2023-05-11T06:23:58;97298.66;;;11.78;100.00
5283;BME280;15376;48.540;9.268;2023-05-11T06:26:23;97298.47;;;11.79;100.00
5283;BME280;15376;48.540;9.268;2023-05-11T06:28:49;97301.97;;;11.80;100.00
5283;BME280;15376;48.540;9.268;2023-05-11T06:31:15;97307.28;;;11.80;100.00
5283;BME280;15376;48.540;9.268;2023-05-11T06:33:40;97309.78;;;11.88;100.00
5283;BME280;15376;48.540;9.268;2023-05-11T06:36:06;97302.63;;;11.88;100.00
5283;BME280;15376;48.540;9.268;2023-05-11T06:38:32;97302.78;;;11.80;100.00
5283;BME280;15376;48.540;9.268;2023-05-11T06:40:57;97296.25;;;11.83;100.00
5283;BME280;15376;48.540;9.268;2023-05-11T06:43:23;97297.13;;;11.90;100.00
5283;BME280;15376;48.540;9.268;2023-05-11T06:45:49;97304.53;;;12.01;100.00
5283;BME280;15376;48.540;9.268;2023-05-11T06:48:14;97307.47;;;12.13;100.00
5283;BME280;15376;48.540;9.268;2023-05-11T06:50:39;97291.84;;;12.03;100.00
5283;BME280;15376;48.540;9.268;2023-05-11T06:53:05;97304.66;;;12.21;100.00
5283;BME280;15376;48.540;9.268;2023-05-11T06:55:30;97286.22;;;12.19;100.00
5283;BME280;15376;48.540;9.268;2023-05-11T06:57:56;97303.91;;;12.33;100.00
5283;BME280;15376;48.540;9.268;2023-05-11T07:00:21;97295.91;;;12.33;100.00
5283;BME280;15376;48.540;9.268;2023-05-11T07:02:47;97302.69;;;12.36;100.00
5283;BME280;15376;48.540;9.268;2023-05-11T07:05:12;97294.88;;;12.34;100.00
5283;BME280;15376;48.540;9.268;2023-05-11T07:07:37;97305.16;;;12.44;100.00
5283;BME280;15376;48.540;9.268;2023-05-11T07:10:06;97292.38;;;12.26;100.00
5283;BME280;15376;48.540;9.268;2023-05-11T07:12:32;97298.38;;;12.35;100.00
5283;BME280;15376;48.540;9.268;2023-05-11T07:14:57;97291.59;;;12.32;100.00
5283;BME280;15376;48.540;9.268;2023-05-11T07:17:22;97305.34;;;12.43;100.00
5283;BME280;15376;48.540;9.268;2023-05-11T07:19:48;97303.69;;;12.42;100.00
5283;BME280;15376;48.540;9.268;2023-05-11T07:22:16;97311.84;;;12.27;100.00
5283;BME280;15376;48.540;9.268;2023-05-11T07:24:41;97278.78;;;12.08;100.00
5283;BME280;15376;48.540;9.268;2023-05-11T07:27:07;97304.72;;;12.41;100.00
5283;BME280;15376;48.540;9.268;2023-05-11T07:29:32;97290.81;;;12.39;100.00
5283;BME280;15376;48.540;9.268;2023-05-11T07:31:57;97308.47;;;12.53;100.00
5283;BME280;15376;48.540;9.268;2023-05-11T07:34:23;97310.94;;;12.61;100.00
5283;BME280;15376;48.540;9.268;2023-05-11T07:36:48;97311.56;;;12.63;100.00
5283;BME280;15376;48.540;9.268;2023-05-11T07:39:14;97303.84;;;12.75;100.00
5283;BME280;15376;48.540;9.268;2023-05-11T07:41:41;97313.50;;;12.95;100.00
5283;BME280;15376;48.540;9.268;2023-05-11T07:44:06;97309.41;;;12.93;100.00
5283;BME280;15376;48.540;9.268;2023-05-11T07:46:31;97298.72;;;12.93;100.00
5283;BME280;15376;48.540;9.268;2023-05-11T07:48:57;97306.53;;;12.94;100.00
5283;BME280;15376;48.540;9.268;2023-05-11T07:51:22;97305.09;;;12.98;100.00
5283;BME280;15376;48.540;9.268;2023-05-11T07:53:47;97298.72;;;12.93;100.00
5283;BME280;15376;48.540;9.268;2023-05-11T07:56:13;97289.28;;;12.90;100.00
5283;BME280;15376;48.540;9.268;2023-05-11T07:58:38;97298.13;;;12.97;100.00
5283;BME280;15376;48.540;9.268;2023-05-11T08:01:04;97300.03;;;13.17;100.00
5283;BME280;15376;48.540;9.268;2023-05-11T08:03:29;97301.25;;;13.21;100.00
5283;BME280;15376;48.540;9.268;2023-05-11T08:05:55;97296.34;;;13.31;100.00
5283;BME280;15376;48.540;9.268;2023-05-11T08:08:20;97295.13;;;13.33;100.00
5283;BME280;15376;48.540;9.268;2023-05-11T08:10:45;97301.47;;;13.26;100.00
5283;BME280;15376;48.540;9.268;2023-05-11T08:13:11;97300.88;;;13.17;100.00
5283;BME280;15376;48.540;9.268;2023-05-11T08:15:36;97300.84;;;13.30;100.00
5283;BME280;15376;48.540;9.268;2023-05-11T08:18:01;97300.03;;;13.37;100.00
5283;BME280;15376;48.540;9.268;2023-05-11T08:20:27;97307.44;;;13.41;100.00
5283;BME280;15376;48.540;9.268;2023-05-11T08:22:52;97301.47;;;13.52;100.00
5283;BME280;15376;48.540;9.268;2023-05-11T08:25:18;97304.75;;;13.74;100.00
5283;BME280;15376;48.540;9.268;2023-05-11T08:27:43;97299.19;;;13.76;100.00
5283;BME280;15376;48.540;9.268;2023-05-11T08:30:09;97289.75;;;13.80;100.00
5283;BME280;15376;48.540;9.268;2023-05-11T08:32:35;97287.69;;;13.68;100.00
5283;BME280;15376;48.540;9.268;2023-05-11T08:35:01;97299.19;;;13.62;100.00
5283;BME280;15376;48.540;9.268;2023-05-11T08:37:28;97305.16;;;13.64;100.00
5283;BME280;15376;48.540;9.268;2023-05-11T08:39:54;97302.88;;;13.75;100.00
5283;BME280;15376;48.540;9.268;2023-05-11T08:42:23;97315.63;;;13.79;100.00
5283;BME280;15376;48.540;9.268;2023-05-11T08:44:52;97309.06;;;13.68;100.00
5283;BME280;15376;48.540;9.268;2023-05-11T08:47:19;97293.88;;;13.36;100.00
5283;BME280;15376;48.540;9.268;2023-05-11T08:49:44;97309.69;;;13.51;100.00
5283;BME280;15376;48.540;9.268;2023-05-11T08:52:11;97296.75;;;13.41;100.00
5283;BME280;15376;48.540;9.268;2023-05-11T08:54:38;97301.66;;;13.64;100.00
5283;BME280;15376;48.540;9.268;2023-05-11T08:57:03;97300.44;;;13.66;100.00
5283;BME280;15376;48.540;9.268;2023-05-11T08:59:29;97296.31;;;13.64;100.00
5283;BME280;15376;48.540;9.268;2023-05-11T09:01:55;97302.47;;;13.91;100.00
5283;BME280;15376;48.540;9.268;2023-05-11T09:04:21;97305.97;;;13.72;100.00
5283;BME280;15376;48.540;9.268;2023-05-11T09:06:49;97300.63;;;13.78;100.00
5283;BME280;15376;48.540;9.268;2023-05-11T09:09:15;97295.47;;;13.90;100.00
5283;BME280;15376;48.540;9.268;2023-05-11T09:11:43;97302.63;;;14.02;100.00
5283;BME280;15376;48.540;9.268;2023-05-11T09:14:08;97301.78;;;14.15;100.00
5283;BME280;15376;48.540;9.268;2023-05-11T09:16:34;97308.34;;;14.13;100.00
5283;BME280;15376;48.540;9.268;2023-05-11T09:19:00;97290.91;;;14.10;100.00
5283;BME280;15376;48.540;9.268;2023-05-11T09:21:26;97305.06;;;14.17;100.00
5283;BME280;15376;48.540;9.268;2023-05-11T09:23:54;97302.03;;;13.94;100.00
5283;BME280;15376;48.540;9.268;2023-05-11T09:26:20;97285.03;;;13.82;100.00
5283;BME280;15376;48.540;9.268;2023-05-11T09:28:50;97300.44;;;13.73;100.00
5283;BME280;15376;48.540;9.268;2023-05-11T09:31:39;97303.91;;;13.74;100.00
5283;BME280;15376;48.540;9.268;2023-05-11T09:34:22;97297.13;;;13.78;100.00
5283;BME280;15376;48.540;9.268;2023-05-11T09:36:52;97296.72;;;13.94;100.00
5283;BME280;15376;48.540;9.268;2023-05-11T09:39:33;97303.50;;;13.83;100.00
5283;BME280;15376;48.540;9.268;2023-05-11T09:42:18;97308.22;;;13.94;100.00
5283;BME280;15376;48.540;9.268;2023-05-11T09:44:44;97308.63;;;13.85;100.00
5283;BME280;15376;48.540;9.268;2023-05-11T09:47:14;97289.97;;;13.72;100.00
5283;BME280;15376;48.540;9.268;2023-05-11T09:49:42;97298.00;;;13.52;100.00
5283;BME280;15376;48.540;9.268;2023-05-11T09:52:13;97302.06;;;13.67;100.00
5283;BME280;15376;48.540;9.268;2023-05-11T09:54:43;97295.91;;;13.60;100.00
5283;BME280;15376;48.540;9.268;2023-05-11T09:57:27;97299.22;;;13.49;100.00
5283;BME280;15376;48.540;9.268;2023-05-11T09:59:54;97296.34;;;13.57;100.00
5283;BME280;15376;48.540;9.268;2023-05-11T10:02:30;97297.75;;;13.60;100.00
5283;BME280;15376;48.540;9.268;2023-05-11T10:04:57;97303.75;;;13.42;100.00
5283;BME280;15376;48.540;9.268;2023-05-11T10:07:30;97303.75;;;13.55;100.00
5283;BME280;15376;48.540;9.268;2023-05-11T10:09:58;97300.44;;;13.40;100.00
5283;BME280;15376;48.540;9.268;2023-05-11T10:12:24;97303.94;;;13.47;100.00
5283;BME280;15376;48.540;9.268;2023-05-11T10:15:01;97274.19;;;13.24;100.00
5283;BME280;15376;48.540;9.268;2023-05-11T10:17:27;97302.09;;;13.41;100.00
5283;BME280;15376;48.540;9.268;2023-05-11T10:19:54;97296.34;;;13.57;100.00
5283;BME280;15376;48.540;9.268;2023-05-11T10:22:24;97290.19;;;13.57;100.00
5283;BME280;15376;48.540;9.268;2023-05-11T10:24:49;97292.03;;;13.43;100.00
5283;BME280;15376;48.540;9.268;2023-05-11T10:27:17;97295.72;;;13.35;100.00
5283;BME280;15376;48.540;9.268;2023-05-11T10:29:43;97305.78;;;13.33;100.00
5283;BME280;15376;48.540;9.268;2023-05-11T10:32:09;97297.56;;;13.68;100.00
5283;BME280;15376;48.540;9.268;2023-05-11T10:34:35;97281.53;;;13.75;100.00
5283;BME280;15376;48.540;9.268;2023-05-11T10:37:01;97294.25;;;13.79;100.00
5283;BME280;15376;48.540;9.268;2023-05-11T10:39:28;97284.41;;;13.80;100.00
5283;BME280;15376;48.540;9.268;2023-05-11T10:50:51;97285.84;;;13.62;100.00
5283;BME280;15376;48.540;9.268;2023-05-11T10:53:43;97285.22;;;13.74;100.00
5283;BME280;15376;48.540;9.268;2023-05-11T11:00:05;97269.59;;;13.97;100.00
5283;BME280;15376;48.540;9.268;2023-05-11T11:02:05;97260.78;;;13.90;100.00
5283;BME280;15376;48.540;9.268;2023-05-11T11:07:12;97274.44;;;14.20;100.00
5283;BME280;15376;48.540;9.268;2023-05-11T11:10:11;97277.44;;;14.43;100.00
5283;BME280;15376;48.540;9.268;2023-05-11T11:12:37;97269.47;;;14.30;100.00
5283;BME280;15376;48.540;9.268;2023-05-11T11:15:04;97267.88;;;14.16;100.00
5283;BME280;15376;48.540;9.268;2023-05-11T11:17:34;97280.63;;;14.07;100.00
5283;BME280;15376;48.540;9.268;2023-05-11T11:20:44;97275.22;;;14.33;100.00
5283;BME280;15376;48.540;9.268;2023-05-11T11:23:05;97280.19;;;14.23;100.00
5283;BME280;15376;48.540;9.268;2023-05-11T11:25:52;97284.31;;;14.19;100.00
5283;BME280;15376;48.540;9.268;2023-05-11T11:28:20;97283.69;;;14.17;100.00
5283;BME280;15376;48.540;9.268;2023-05-11T11:30:46;97274.34;;;14.40;100.00
5283;BME280;15376;48.540;9.268;2023-05-11T11:38:10;97269.34;;;14.63;100.00
5283;BME280;15376;48.540;9.268;2023-05-11T11:40:40;97276.88;;;14.34;100.00
5283;BME280;15376;48.540;9.268;2023-05-11T11:43:13;97266.13;;;14.48;100.00
5283;BME280;15376;48.540;9.268;2023-05-11T11:48:15;97279.66;;;14.59;100.00
5283;BME280;15376;48.540;9.268;2023-05-11T11:50:46;97276.25;;;14.32;100.00
5283;BME280;15376;48.540;9.268;2023-05-11T11:56:00;97258.19;;;14.28;100.00
5283;BME280;15376;48.540;9.268;2023-05-11T12:01:21;97258.63;;;14.70;100.00
5283;BME280;15376;48.540;9.268;2023-05-11T12:04:08;97258.94;;;14.80;100.00
5283;BME280;15376;48.540;9.268;2023-05-11T12:06:39;97266.41;;;14.78;100.00
5283;BME280;15376;48.540;9.268;2023-05-11T12:09:06;97270.63;;;14.41;100.00
5283;BME280;15376;48.540;9.268;2023-05-11T12:11:32;97265.00;;;14.17;100.00
5283;BME280;15376;48.540;9.268;2023-05-11T12:13:58;97260.59;;;13.85;100.00
5283;BME280;15376;48.540;9.268;2023-05-11T12:16:24;97256.50;;;13.62;100.00
5283;BME280;15376;48.540;9.268;2023-05-11T12:18:51;97267.81;;;13.58;100.00
5283;BME280;15376;48.540;9.268;2023-05-11T12:21:22;97261.47;;;13.59;100.00
5283;BME280;15376;48.540;9.268;2023-05-11T12:23:58;97257.09;;;13.78;100.00
5283;BME280;15376;48.540;9.268;2023-05-11T12:26:24;97267.53;;;13.99;100.00
5283;BME280;15376;48.540;9.268;2023-05-11T12:28:51;97269.53;;;14.10;100.00
5283;BME280;15376;48.540;9.268;2023-05-11T12:31:17;97265.19;;;14.22;100.00
5283;BME280;15376;48.540;9.268;2023-05-11T12:33:50;97253.78;;;14.47;100.00
5283;BME280;15376;48.540;9.268;2023-05-11T12:36:17;97264.47;;;14.47;100.00
5283;BME280;15376;48.540;9.268;2023-05-11T12:38:47;97266.50;;;14.58;100.00
5283;BME280;15376;48.540;9.268;2023-05-11T12:41:22;97261.50;;;14.68;100.00
5283;BME280;15376;48.540;9.268;2023-05-11T12:43:53;97255.50;;;14.34;100.00
5283;BME280;15376;48.540;9.268;2023-05-11T12:46:19;97249.72;;;14.38;100.00
5283;BME280;15376;48.540;9.268;2023-05-11T12:48:46;97248.09;;;14.30;100.00
5283;BME280;15376;48.540;9.268;2023-05-11T12:51:12;97255.44;;;14.48;100.00
5283;BME280;15376;48.540;9.268;2023-05-11T12:53:38;97237.13;;;14.51;100.00
5283;BME280;15376;48.540;9.268;2023-05-11T12:56:05;97249.81;;;14.62;100.00
5283;BME280;15376;48.540;9.268;2023-05-11T12:58:38;97239.16;;;14.56;100.00
5283;BME280;15376;48.540;9.268;2023-05-11T13:01:05;97242.91;;;14.80;100.00
5283;BME280;15376;48.540;9.268;2023-05-11T13:03:32;97242.19;;;14.97;100.00
5283;BME280;15376;48.540;9.268;2023-05-11T13:06:05;97237.06;;;14.96;100.00
5283;BME280;15376;48.540;9.268;2023-05-11T13:08:32;97230.03;;;15.26;100.00
5283;BME280;15376;48.540;9.268;2023-05-11T13:13:41;97227.19;;;14.65;100.00
5283;BME280;15376;48.540;9.268;2023-05-11T13:16:06;97229.09;;;14.58;100.00
5283;BME280;15376;48.540;9.268;2023-05-11T13:18:32;97225.16;;;14.60;100.00
5283;BME280;15376;48.540;9.268;2023-05-11T13:21:05;97221.50;;;14.55;100.00
5283;BME280;15376;48.540;9.268;2023-05-11T13:23:31;97222.06;;;14.63;100.00
5283;BME280;15376;48.540;9.268;2023-05-11T13:25:57;97220.03;;;14.59;100.00
5283;BME280;15376;48.540;9.268;2023-05-11T13:28:22;97221.63;;;14.66;100.00
5283;BME280;15376;48.540;9.268;2023-05-11T13:30:49;97225.97;;;14.61;100.00
5283;BME280;15376;48.540;9.268;2023-05-11T13:33:18;97224.28;;;14.73;100.00
5283;BME280;15376;48.540;9.268;2023-05-11T13:35:43;97228.91;;;14.84;97.76
5283;BME280;15376;48.540;9.268;2023-05-11T13:38:10;97224.94;;;14.93;97.86
5283;BME280;15376;48.540;9.268;2023-05-11T13:40:35;97225.22;;;15.10;97.59
5283;BME280;15376;48.540;9.268;2023-05-11T13:43:01;97219.94;;;15.04;95.29